sensor_id;sensor_type;location;lat;lon;timestamp;P1;durP1;ratioP1;P2;durP2;ratioP2
1935;SDS011;969;49.892;10.896;2023-12-22T00:01:27;6.87;;;4.37;;
1935;SDS011;969;49.892;10.896;2023-12-22T00:03:52;7.33;;;4.27;;
1935;SDS011;969;49.892;10.896;2023-12-22T00:06:18;9.30;;;4.63;;
1935;SDS011;969;49.892;10.896;2023-12-22T00:08:43;6.10;;;3.97;;
1935;SDS011;969;49.892;10.896;2023-12-22T00:11:09;5.87;;;4.17;;
1935;SDS011;969;49.892;10.896;2023-12-22T00:13:35;5.50;;;3.90;;
1935;SDS011;969;49.892;10.896;2023-12-22T00:16:00;6.67;;;3.60;;
1935;SDS011;969;49.892;10.896;2023-12-22T00:18:26;6.50;;;4.50;;
1935;SDS011;969;49.892;10.896;2023-12-22T00:20:52;5.40;;;3.67;;
1935;SDS011;969;49.892;10.896;2023-12-22T00:23:18;7.70;;;4.87;;
1935;SDS011;969;49.892;10.896;2023-12-22T00:25:43;8.43;;;4.27;;
1935;SDS011;969;49.892;10.896;2023-12-22T00:28:09;5.70;;;3.43;;
1935;SDS011;969;49.892;10.896;2023-12-22T00:30:35;6.20;;;3.90;;
1935;SDS011;969;49.892;10.896;2023-12-22T00:33:00;6.30;;;4.13;;
1935;SDS011;969;49.892;10.896;2023-12-22T00:35:26;6.07;;;4.60;;
1935;SDS011;969;49.892;10.896;2023-12-22T00:37:51;5.13;;;3.70;;
1935;SDS011;969;49.892;10.896;2023-12-22T00:40:18;6.73;;;4.57;;
1935;SDS011;969;49.892;10.896;2023-12-22T00:42:43;7.03;;;4.20;;
1935;SDS011;969;49.892;10.896;2023-12-22T00:45:09;6.33;;;4.27;;
1935;SDS011;969;49.892;10.896;2023-12-22T00:47:35;5.57;;;3.70;;
1935;SDS011;969;49.892;10.896;2023-12-22T00:50:01;6.83;;;4.03;;
1935;SDS011;969;49.892;10.896;2023-12-22T00:52:27;5.93;;;3.80;;
1935;SDS011;969;49.892;10.896;2023-12-22T00:54:53;5.10;;;4.10;;
1935;SDS011;969;49.892;10.896;2023-12-22T00:57:18;5.60;;;4.13;;
1935;SDS011;969;49.892;10.896;2023-12-22T00:59:44;6.33;;;3.60;;
1935;SDS011;969;49.892;10.896;2023-12-22T01:02:15;8.37;;;4.23;;
1935;SDS011;969;49.892;10.896;2023-12-22T01:04:41;5.53;;;3.67;;
1935;SDS011;969;49.892;10.896;2023-12-22T01:07:07;5.63;;;3.83;;
1935;SDS011;969;49.892;10.896;2023-12-22T01:09:34;5.50;;;3.60;;
1935;SDS011;969;49.892;10.896;2023-12-22T01:12:02;6.50;;;4.50;;
1935;SDS011;969;49.892;10.896;2023-12-22T01:14:32;8.43;;;4.00;;
1935;SDS011;969;49.892;10.896;2023-12-22T01:16:58;5.50;;;3.87;;
1935;SDS011;969;49.892;10.896;2023-12-22T01:19:26;4.90;;;3.60;;
1935;SDS011;969;49.892;10.896;2023-12-22T01:21:52;4.83;;;3.50;;
1935;SDS011;969;49.892;10.896;2023-12-22T01:24:18;4.17;;;2.77;;
1935;SDS011;969;49.892;10.896;2023-12-22T01:26:43;5.83;;;3.80;;
1935;SDS011;969;49.892;10.896;2023-12-22T01:29:09;5.57;;;3.57;;
1935;SDS011;969;49.892;10.896;2023-12-22T01:31:35;4.30;;;3.90;;
1935;SDS011;969;49.892;10.896;2023-12-22T01:34:00;5.17;;;3.70;;
1935;SDS011;969;49.892;10.896;2023-12-22T01:36:26;6.37;;;4.00;;
1935;SDS011;969;49.892;10.896;2023-12-22T01:38:52;5.53;;;3.70;;
1935;SDS011;969;49.892;10.896;2023-12-22T01:41:17;7.17;;;3.53;;
1935;SDS011;969;49.892;10.896;2023-12-22T01:43:43;4.70;;;3.57;;
1935;SDS011;969;49.892;10.896;2023-12-22T01:46:09;6.00;;;3.30;;
1935;SDS011;969;49.892;10.896;2023-12-22T01:48:36;5.60;;;3.60;;
1935;SDS011;969;49.892;10.896;2023-12-22T01:51:02;3.53;;;2.73;;
1935;SDS011;969;49.892;10.896;2023-12-22T01:53:29;4.50;;;3.80;;
1935;SDS011;969;49.892;10.896;2023-12-22T01:55:56;3.70;;;2.80;;
1935;SDS011;969;49.892;10.896;2023-12-22T01:58:24;6.13;;;3.70;;
1935;SDS011;969;49.892;10.896;2023-12-22T02:00:52;5.50;;;3.33;;
1935;SDS011;969;49.892;10.896;2023-12-22T02:03:18;4.63;;;3.30;;
1935;SDS011;969;49.892;10.896;2023-12-22T02:05:44;6.17;;;3.87;;
1935;SDS011;969;49.892;10.896;2023-12-22T02:08:11;4.33;;;3.93;;
1935;SDS011;969;49.892;10.896;2023-12-22T02:10:37;4.80;;;3.57;;
1935;SDS011;969;49.892;10.896;2023-12-22T02:13:03;5.13;;;3.50;;
1935;SDS011;969;49.892;10.896;2023-12-22T02:15:30;4.50;;;3.30;;
1935;SDS011;969;49.892;10.896;2023-12-22T02:18:04;5.33;;;3.47;;
1935;SDS011;969;49.892;10.896;2023-12-22T02:20:37;5.43;;;3.70;;
1935;SDS011;969;49.892;10.896;2023-12-22T02:23:03;6.37;;;3.57;;
1935;SDS011;969;49.892;10.896;2023-12-22T02:25:29;5.10;;;3.40;;
1935;SDS011;969;49.892;10.896;2023-12-22T02:27:58;5.17;;;3.07;;
1935;SDS011;969;49.892;10.896;2023-12-22T02:33:00;4.23;;;2.97;;
1935;SDS011;969;49.892;10.896;2023-12-22T02:35:29;5.07;;;3.23;;
1935;SDS011;969;49.892;10.896;2023-12-22T02:37:57;4.77;;;3.60;;
1935;SDS011;969;49.892;10.896;2023-12-22T02:40:23;4.60;;;3.70;;
1935;SDS011;969;49.892;10.896;2023-12-22T02:42:50;4.33;;;3.13;;
1935;SDS011;969;49.892;10.896;2023-12-22T02:45:18;5.37;;;3.30;;
1935;SDS011;969;49.892;10.896;2023-12-22T02:47:44;4.60;;;3.27;;
1935;SDS011;969;49.892;10.896;2023-12-22T02:50:10;5.60;;;3.57;;
1935;SDS011;969;49.892;10.896;2023-12-22T02:52:38;5.50;;;3.20;;
1935;SDS011;969;49.892;10.896;2023-12-22T02:55:04;4.30;;;2.73;;
1935;SDS011;969;49.892;10.896;2023-12-22T02:57:30;4.60;;;3.10;;
1935;SDS011;969;49.892;10.896;2023-12-22T02:59:56;3.83;;;3.00;;
1935;SDS011;969;49.892;10.896;2023-12-22T03:02:22;4.40;;;2.70;;
1935;SDS011;969;49.892;10.896;2023-12-22T03:04:47;4.53;;;2.70;;
1935;SDS011;969;49.892;10.896;2023-12-22T03:07:13;4.30;;;3.10;;
1935;SDS011;969;49.892;10.896;2023-12-22T03:09:39;4.23;;;2.87;;
1935;SDS011;969;49.892;10.896;2023-12-22T03:12:06;4.10;;;2.70;;
1935;SDS011;969;49.892;10.896;2023-12-22T03:14:32;5.27;;;3.40;;
1935;SDS011;969;49.892;10.896;2023-12-22T03:17:05;4.17;;;2.70;;
1935;SDS011;969;49.892;10.896;2023-12-22T03:19:31;5.10;;;3.30;;
1935;SDS011;969;49.892;10.896;2023-12-22T03:21:58;3.00;;;2.37;;
1935;SDS011;969;49.892;10.896;2023-12-22T03:24:24;3.93;;;2.77;;
1935;SDS011;969;49.892;10.896;2023-12-22T03:26:50;3.90;;;2.87;;
1935;SDS011;969;49.892;10.896;2023-12-22T03:29:16;3.87;;;2.47;;
1935;SDS011;969;49.892;10.896;2023-12-22T03:31:42;4.40;;;3.00;;
1935;SDS011;969;49.892;10.896;2023-12-22T03:34:08;5.33;;;3.27;;
1935;SDS011;969;49.892;10.896;2023-12-22T03:36:34;4.37;;;3.00;;
1935;SDS011;969;49.892;10.896;2023-12-22T03:39:00;3.50;;;2.40;;
1935;SDS011;969;49.892;10.896;2023-12-22T03:41:26;4.10;;;2.87;;
1935;SDS011;969;49.892;10.896;2023-12-22T03:43:51;3.10;;;2.30;;
1935;SDS011;969;49.892;10.896;2023-12-22T03:46:17;4.60;;;2.60;;
1935;SDS011;969;49.892;10.896;2023-12-22T03:48:43;4.57;;;3.07;;
1935;SDS011;969;49.892;10.896;2023-12-22T03:51:09;4.00;;;3.13;;
1935;SDS011;969;49.892;10.896;2023-12-22T03:53:36;3.00;;;2.47;;
1935;SDS011;969;49.892;10.896;2023-12-22T03:56:02;3.80;;;2.70;;
1935;SDS011;969;49.892;10.896;2023-12-22T03:58:28;3.77;;;3.17;;
1935;SDS011;969;49.892;10.896;2023-12-22T04:00:55;4.03;;;3.40;;
1935;SDS011;969;49.892;10.896;2023-12-22T04:03:21;4.40;;;3.33;;
1935;SDS011;969;49.892;10.896;2023-12-22T04:05:46;3.80;;;2.70;;
1935;SDS011;969;49.892;10.896;2023-12-22T04:08:12;3.67;;;2.67;;
1935;SDS011;969;49.892;10.896;2023-12-22T04:10:37;4.40;;;2.13;;
1935;SDS011;969;49.892;10.896;2023-12-22T04:13:03;3.63;;;2.53;;
1935;SDS011;969;49.892;10.896;2023-12-22T04:15:28;4.17;;;2.40;;
1935;SDS011;969;49.892;10.896;2023-12-22T04:17:54;4.03;;;2.83;;
1935;SDS011;969;49.892;10.896;2023-12-22T04:20:19;3.97;;;2.60;;
1935;SDS011;969;49.892;10.896;2023-12-22T04:22:45;3.93;;;2.83;;
1935;SDS011;969;49.892;10.896;2023-12-22T04:25:11;4.70;;;3.10;;
1935;SDS011;969;49.892;10.896;2023-12-22T04:27:36;3.57;;;2.90;;
1935;SDS011;969;49.892;10.896;2023-12-22T04:30:02;3.17;;;2.87;;
1935;SDS011;969;49.892;10.896;2023-12-22T04:32:28;3.27;;;2.50;;
1935;SDS011;969;49.892;10.896;2023-12-22T04:34:53;3.80;;;2.87;;
1935;SDS011;969;49.892;10.896;2023-12-22T04:37:19;4.10;;;2.37;;
1935;SDS011;969;49.892;10.896;2023-12-22T04:39:44;6.10;;;4.27;;
1935;SDS011;969;49.892;10.896;2023-12-22T04:42:10;2.93;;;2.60;;
1935;SDS011;969;49.892;10.896;2023-12-22T04:44:36;3.53;;;2.43;;
1935;SDS011;969;49.892;10.896;2023-12-22T04:47:01;3.67;;;2.63;;
1935;SDS011;969;49.892;10.896;2023-12-22T04:49:27;3.70;;;2.60;;
1935;SDS011;969;49.892;10.896;2023-12-22T04:51:53;2.77;;;2.13;;
1935;SDS011;969;49.892;10.896;2023-12-22T04:54:19;2.80;;;2.50;;
1935;SDS011;969;49.892;10.896;2023-12-22T04:56:44;3.73;;;2.53;;
1935;SDS011;969;49.892;10.896;2023-12-22T04:59:10;3.67;;;2.47;;
1935;SDS011;969;49.892;10.896;2023-12-22T05:01:35;3.90;;;2.73;;
1935;SDS011;969;49.892;10.896;2023-12-22T05:04:01;3.20;;;2.30;;
1935;SDS011;969;49.892;10.896;2023-12-22T05:06:30;3.73;;;2.80;;
1935;SDS011;969;49.892;10.896;2023-12-22T05:08:56;3.93;;;2.00;;
1935;SDS011;969;49.892;10.896;2023-12-22T05:11:22;3.40;;;2.37;;
1935;SDS011;969;49.892;10.896;2023-12-22T05:13:47;4.87;;;2.60;;
1935;SDS011;969;49.892;10.896;2023-12-22T05:16:13;4.33;;;2.80;;
1935;SDS011;969;49.892;10.896;2023-12-22T05:18:39;3.40;;;2.77;;
1935;SDS011;969;49.892;10.896;2023-12-22T05:21:05;3.33;;;2.30;;
1935;SDS011;969;49.892;10.896;2023-12-22T05:23:30;3.10;;;2.20;;
1935;SDS011;969;49.892;10.896;2023-12-22T05:25:56;4.27;;;2.40;;
1935;SDS011;969;49.892;10.896;2023-12-22T05:28:22;3.90;;;2.90;;
1935;SDS011;969;49.892;10.896;2023-12-22T05:30:47;3.57;;;2.60;;
1935;SDS011;969;49.892;10.896;2023-12-22T05:33:13;4.40;;;2.00;;
1935;SDS011;969;49.892;10.896;2023-12-22T05:35:38;3.37;;;2.30;;
1935;SDS011;969;49.892;10.896;2023-12-22T05:38:04;4.23;;;2.70;;
1935;SDS011;969;49.892;10.896;2023-12-22T05:40:31;3.00;;;2.70;;
1935;SDS011;969;49.892;10.896;2023-12-22T05:42:57;2.17;;;1.70;;
1935;SDS011;969;49.892;10.896;2023-12-22T05:45:22;2.57;;;1.80;;
1935;SDS011;969;49.892;10.896;2023-12-22T05:47:49;3.53;;;2.40;;
1935;SDS011;969;49.892;10.896;2023-12-22T05:50:15;4.20;;;3.07;;
1935;SDS011;969;49.892;10.896;2023-12-22T05:52:41;3.00;;;2.60;;
1935;SDS011;969;49.892;10.896;2023-12-22T05:55:08;3.17;;;2.47;;
1935;SDS011;969;49.892;10.896;2023-12-22T05:57:34;2.70;;;2.33;;
1935;SDS011;969;49.892;10.896;2023-12-22T06:00:00;2.90;;;2.50;;
1935;SDS011;969;49.892;10.896;2023-12-22T06:02:25;4.87;;;2.30;;
1935;SDS011;969;49.892;10.896;2023-12-22T06:04:51;4.07;;;2.63;;
1935;SDS011;969;49.892;10.896;2023-12-22T06:07:17;3.00;;;2.10;;
1935;SDS011;969;49.892;10.896;2023-12-22T06:09:44;3.73;;;2.30;;
1935;SDS011;969;49.892;10.896;2023-12-22T06:12:10;3.00;;;2.47;;
1935;SDS011;969;49.892;10.896;2023-12-22T06:14:35;5.97;;;2.70;;
1935;SDS011;969;49.892;10.896;2023-12-22T06:17:01;5.27;;;2.40;;
1935;SDS011;969;49.892;10.896;2023-12-22T06:19:27;4.07;;;2.10;;
1935;SDS011;969;49.892;10.896;2023-12-22T06:21:55;3.40;;;2.23;;
1935;SDS011;969;49.892;10.896;2023-12-22T06:24:22;2.47;;;1.93;;
1935;SDS011;969;49.892;10.896;2023-12-22T06:26:48;5.30;;;2.80;;
1935;SDS011;969;49.892;10.896;2023-12-22T06:29:13;2.20;;;1.77;;
1935;SDS011;969;49.892;10.896;2023-12-22T06:31:39;2.63;;;2.13;;
1935;SDS011;969;49.892;10.896;2023-12-22T06:34:05;3.17;;;1.90;;
1935;SDS011;969;49.892;10.896;2023-12-22T06:36:30;3.00;;;2.30;;
1935;SDS011;969;49.892;10.896;2023-12-22T06:38:56;2.70;;;2.00;;
1935;SDS011;969;49.892;10.896;2023-12-22T06:41:29;2.73;;;2.03;;
1935;SDS011;969;49.892;10.896;2023-12-22T06:43:56;2.60;;;2.20;;
1935;SDS011;969;49.892;10.896;2023-12-22T06:46:24;3.10;;;1.90;;
1935;SDS011;969;49.892;10.896;2023-12-22T06:48:51;4.73;;;2.60;;
1935;SDS011;969;49.892;10.896;2023-12-22T06:51:17;2.70;;;1.90;;
1935;SDS011;969;49.892;10.896;2023-12-22T06:53:47;2.70;;;1.87;;
1935;SDS011;969;49.892;10.896;2023-12-22T06:56:23;4.33;;;2.60;;
1935;SDS011;969;49.892;10.896;2023-12-22T06:58:51;5.73;;;3.27;;
1935;SDS011;969;49.892;10.896;2023-12-22T07:01:24;6.30;;;3.40;;
1935;SDS011;969;49.892;10.896;2023-12-22T07:03:54;6.13;;;2.80;;
1935;SDS011;969;49.892;10.896;2023-12-22T07:06:20;4.60;;;2.97;;
1935;SDS011;969;49.892;10.896;2023-12-22T07:11:45;6.27;;;3.60;;
1935;SDS011;969;49.892;10.896;2023-12-22T07:14:12;5.60;;;3.20;;
1935;SDS011;969;49.892;10.896;2023-12-22T07:16:41;4.47;;;3.20;;
1935;SDS011;969;49.892;10.896;2023-12-22T07:19:10;5.93;;;3.30;;
1935;SDS011;969;49.892;10.896;2023-12-22T07:21:38;5.10;;;3.23;;
1935;SDS011;969;49.892;10.896;2023-12-22T07:24:04;5.10;;;3.80;;
1935;SDS011;969;49.892;10.896;2023-12-22T07:26:30;5.33;;;3.20;;
1935;SDS011;969;49.892;10.896;2023-12-22T07:28:56;5.83;;;3.13;;
1935;SDS011;969;49.892;10.896;2023-12-22T07:31:22;4.87;;;3.67;;
1935;SDS011;969;49.892;10.896;2023-12-22T07:33:47;4.47;;;3.10;;
1935;SDS011;969;49.892;10.896;2023-12-22T07:36:13;5.17;;;3.03;;
1935;SDS011;969;49.892;10.896;2023-12-22T07:38:39;5.17;;;3.30;;
1935;SDS011;969;49.892;10.896;2023-12-22T07:41:05;6.20;;;3.67;;
1935;SDS011;969;49.892;10.896;2023-12-22T07:43:31;7.77;;;4.30;;
1935;SDS011;969;49.892;10.896;2023-12-22T07:45:56;7.00;;;3.33;;
1935;SDS011;969;49.892;10.896;2023-12-22T07:48:22;6.50;;;3.60;;
1935;SDS011;969;49.892;10.896;2023-12-22T07:50:49;5.83;;;3.57;;
1935;SDS011;969;49.892;10.896;2023-12-22T07:53:15;6.80;;;3.23;;
1935;SDS011;969;49.892;10.896;2023-12-22T07:55:40;5.23;;;3.23;;
1935;SDS011;969;49.892;10.896;2023-12-22T07:58:06;6.27;;;3.30;;
1935;SDS011;969;49.892;10.896;2023-12-22T08:00:32;8.87;;;3.60;;
1935;SDS011;969;49.892;10.896;2023-12-22T08:02:58;5.43;;;3.70;;
1935;SDS011;969;49.892;10.896;2023-12-22T08:05:24;6.60;;;3.23;;
1935;SDS011;969;49.892;10.896;2023-12-22T08:07:50;5.70;;;3.20;;
1935;SDS011;969;49.892;10.896;2023-12-22T08:10:16;4.77;;;2.90;;
1935;SDS011;969;49.892;10.896;2023-12-22T08:12:42;4.50;;;3.00;;
1935;SDS011;969;49.892;10.896;2023-12-22T08:15:08;4.50;;;3.17;;
1935;SDS011;969;49.892;10.896;2023-12-22T08:17:37;5.07;;;3.40;;
1935;SDS011;969;49.892;10.896;2023-12-22T08:20:05;5.27;;;3.07;;
1935;SDS011;969;49.892;10.896;2023-12-22T08:22:33;5.90;;;3.90;;
1935;SDS011;969;49.892;10.896;2023-12-22T08:24:59;6.40;;;3.20;;
1935;SDS011;969;49.892;10.896;2023-12-22T08:27:24;3.80;;;2.50;;
1935;SDS011;969;49.892;10.896;2023-12-22T08:29:50;6.00;;;3.77;;
1935;SDS011;969;49.892;10.896;2023-12-22T08:32:15;5.73;;;3.00;;
1935;SDS011;969;49.892;10.896;2023-12-22T08:34:41;5.90;;;3.10;;
1935;SDS011;969;49.892;10.896;2023-12-22T08:37:07;3.70;;;3.00;;
1935;SDS011;969;49.892;10.896;2023-12-22T08:39:32;6.03;;;2.90;;
1935;SDS011;969;49.892;10.896;2023-12-22T08:41:58;5.00;;;3.33;;
1935;SDS011;969;49.892;10.896;2023-12-22T08:44:23;8.03;;;3.30;;
1935;SDS011;969;49.892;10.896;2023-12-22T08:46:49;4.53;;;2.80;;
1935;SDS011;969;49.892;10.896;2023-12-22T08:49:15;4.37;;;2.53;;
1935;SDS011;969;49.892;10.896;2023-12-22T08:51:40;4.40;;;2.97;;
1935;SDS011;969;49.892;10.896;2023-12-22T08:54:06;4.60;;;3.30;;
1935;SDS011;969;49.892;10.896;2023-12-22T08:56:32;5.37;;;3.10;;
1935;SDS011;969;49.892;10.896;2023-12-22T08:58:57;4.40;;;2.80;;
1935;SDS011;969;49.892;10.896;2023-12-22T09:01:25;5.63;;;3.40;;
1935;SDS011;969;49.892;10.896;2023-12-22T09:03:51;4.37;;;3.30;;
1935;SDS011;969;49.892;10.896;2023-12-22T09:06:18;5.47;;;3.70;;
1935;SDS011;969;49.892;10.896;2023-12-22T09:08:45;6.87;;;3.37;;
1935;SDS011;969;49.892;10.896;2023-12-22T09:11:11;7.23;;;4.20;;
1935;SDS011;969;49.892;10.896;2023-12-22T09:13:38;6.70;;;4.30;;
1935;SDS011;969;49.892;10.896;2023-12-22T09:16:04;5.83;;;2.80;;
1935;SDS011;969;49.892;10.896;2023-12-22T09:18:30;6.33;;;3.50;;
1935;SDS011;969;49.892;10.896;2023-12-22T09:20:56;6.53;;;3.50;;
1935;SDS011;969;49.892;10.896;2023-12-22T09:23:23;5.77;;;3.00;;
1935;SDS011;969;49.892;10.896;2023-12-22T09:25:49;4.77;;;2.80;;
1935;SDS011;969;49.892;10.896;2023-12-22T09:28:14;4.60;;;2.90;;
1935;SDS011;969;49.892;10.896;2023-12-22T09:30:40;4.80;;;3.03;;
1935;SDS011;969;49.892;10.896;2023-12-22T09:33:06;4.90;;;3.40;;
1935;SDS011;969;49.892;10.896;2023-12-22T09:35:34;4.83;;;4.13;;
1935;SDS011;969;49.892;10.896;2023-12-22T09:38:00;5.43;;;2.97;;
1935;SDS011;969;49.892;10.896;2023-12-22T09:40:26;3.80;;;2.60;;
1935;SDS011;969;49.892;10.896;2023-12-22T09:42:54;4.33;;;2.70;;
1935;SDS011;969;49.892;10.896;2023-12-22T09:45:21;4.23;;;2.50;;
1935;SDS011;969;49.892;10.896;2023-12-22T09:47:50;6.73;;;2.80;;
1935;SDS011;969;49.892;10.896;2023-12-22T09:50:19;6.10;;;3.57;;
1935;SDS011;969;49.892;10.896;2023-12-22T09:52:46;7.27;;;3.20;;
1935;SDS011;969;49.892;10.896;2023-12-22T09:55:12;5.20;;;3.50;;
1935;SDS011;969;49.892;10.896;2023-12-22T09:57:38;5.23;;;2.60;;
1935;SDS011;969;49.892;10.896;2023-12-22T10:00:08;4.47;;;3.20;;
1935;SDS011;969;49.892;10.896;2023-12-22T10:02:34;3.50;;;2.33;;
1935;SDS011;969;49.892;10.896;2023-12-22T10:05:01;5.40;;;3.00;;
1935;SDS011;969;49.892;10.896;2023-12-22T10:07:28;4.70;;;2.67;;
1935;SDS011;969;49.892;10.896;2023-12-22T10:09:55;6.33;;;3.03;;
1935;SDS011;969;49.892;10.896;2023-12-22T10:12:21;4.80;;;2.77;;
1935;SDS011;969;49.892;10.896;2023-12-22T10:14:48;3.90;;;2.67;;
1935;SDS011;969;49.892;10.896;2023-12-22T10:17:14;3.20;;;2.63;;
1935;SDS011;969;49.892;10.896;2023-12-22T10:19:41;4.10;;;2.93;;
1935;SDS011;969;49.892;10.896;2023-12-22T10:22:07;4.43;;;2.57;;
1935;SDS011;969;49.892;10.896;2023-12-22T10:24:51;4.73;;;3.13;;
1935;SDS011;969;49.892;10.896;2023-12-22T10:27:17;4.33;;;3.10;;
1935;SDS011;969;49.892;10.896;2023-12-22T10:29:49;4.13;;;2.70;;
1935;SDS011;969;49.892;10.896;2023-12-22T10:32:16;5.07;;;2.60;;
1935;SDS011;969;49.892;10.896;2023-12-22T10:34:42;3.40;;;2.40;;
1935;SDS011;969;49.892;10.896;2023-12-22T10:37:08;4.13;;;2.90;;
1935;SDS011;969;49.892;10.896;2023-12-22T10:39:35;4.57;;;2.83;;
1935;SDS011;969;49.892;10.896;2023-12-22T10:42:02;4.27;;;2.30;;
1935;SDS011;969;49.892;10.896;2023-12-22T10:44:28;5.50;;;2.90;;
1935;SDS011;969;49.892;10.896;2023-12-22T10:46:55;4.30;;;3.00;;
1935;SDS011;969;49.892;10.896;2023-12-22T10:49:21;3.40;;;2.20;;
1935;SDS011;969;49.892;10.896;2023-12-22T10:51:48;3.40;;;2.13;;
1935;SDS011;969;49.892;10.896;2023-12-22T10:54:14;3.90;;;2.13;;
1935;SDS011;969;49.892;10.896;2023-12-22T10:56:40;3.13;;;2.63;;
1935;SDS011;969;49.892;10.896;2023-12-22T10:59:06;4.73;;;2.43;;
1935;SDS011;969;49.892;10.896;2023-12-22T11:01:33;4.43;;;2.73;;
1935;SDS011;969;49.892;10.896;2023-12-22T11:04:08;3.60;;;2.70;;
1935;SDS011;969;49.892;10.896;2023-12-22T11:06:38;3.00;;;2.13;;
1935;SDS011;969;49.892;10.896;2023-12-22T11:09:07;3.00;;;2.33;;
1935;SDS011;969;49.892;10.896;2023-12-22T11:11:35;3.23;;;2.37;;
1935;SDS011;969;49.892;10.896;2023-12-22T11:14:01;3.30;;;2.40;;
1935;SDS011;969;49.892;10.896;2023-12-22T11:16:31;2.70;;;1.90;;
1935;SDS011;969;49.892;10.896;2023-12-22T11:18:59;4.63;;;2.60;;
1935;SDS011;969;49.892;10.896;2023-12-22T11:21:28;5.27;;;2.53;;
1935;SDS011;969;49.892;10.896;2023-12-22T11:23:55;4.50;;;2.70;;
1935;SDS011;969;49.892;10.896;2023-12-22T11:26:24;5.53;;;3.00;;
1935;SDS011;969;49.892;10.896;2023-12-22T11:28:51;3.00;;;2.20;;
1935;SDS011;969;49.892;10.896;2023-12-22T11:31:18;6.10;;;3.03;;
1935;SDS011;969;49.892;10.896;2023-12-22T11:33:46;3.70;;;2.27;;
1935;SDS011;969;49.892;10.896;2023-12-22T11:36:13;3.97;;;2.70;;
1935;SDS011;969;49.892;10.896;2023-12-22T11:38:40;3.73;;;2.90;;
1935;SDS011;969;49.892;10.896;2023-12-22T11:41:07;4.00;;;2.30;;
1935;SDS011;969;49.892;10.896;2023-12-22T11:43:36;3.83;;;2.70;;
1935;SDS011;969;49.892;10.896;2023-12-22T11:46:04;4.37;;;2.43;;
1935;SDS011;969;49.892;10.896;2023-12-22T11:48:30;4.20;;;1.93;;
1935;SDS011;969;49.892;10.896;2023-12-22T11:50:55;3.53;;;2.40;;
1935;SDS011;969;49.892;10.896;2023-12-22T11:53:22;3.20;;;2.27;;
1935;SDS011;969;49.892;10.896;2023-12-22T11:58:40;4.83;;;3.07;;
1935;SDS011;969;49.892;10.896;2023-12-22T12:01:13;3.93;;;2.40;;
1935;SDS011;969;49.892;10.896;2023-12-22T12:09:01;18.07;;;6.80;;
1935;SDS011;969;49.892;10.896;2023-12-22T12:12:15;25.83;;;11.17;;
1935;SDS011;969;49.892;10.896;2023-12-22T12:14:21;28.43;;;10.60;;
1935;SDS011;969;49.892;10.896;2023-12-22T12:16:54;21.07;;;10.77;;
1935;SDS011;969;49.892;10.896;2023-12-22T12:19:28;20.13;;;9.97;;
1935;SDS011;969;49.892;10.896;2023-12-22T12:21:54;20.80;;;11.53;;
1935;SDS011;969;49.892;10.896;2023-12-22T12:24:20;22.80;;;11.80;;
1935;SDS011;969;49.892;10.896;2023-12-22T12:26:47;29.93;;;13.47;;
1935;SDS011;969;49.892;10.896;2023-12-22T12:29:14;31.70;;;14.40;;
1935;SDS011;969;49.892;10.896;2023-12-22T12:31:42;31.37;;;15.43;;
1935;SDS011;969;49.892;10.896;2023-12-22T12:34:10;24.53;;;11.80;;
1935;SDS011;969;49.892;10.896;2023-12-22T12:36:36;25.90;;;12.90;;
1935;SDS011;969;49.892;10.896;2023-12-22T12:39:07;18.30;;;7.73;;
1935;SDS011;969;49.892;10.896;2023-12-22T12:41:39;24.90;;;10.73;;
1935;SDS011;969;49.892;10.896;2023-12-22T12:44:06;22.23;;;8.40;;
1935;SDS011;969;49.892;10.896;2023-12-22T12:49:05;17.13;;;9.07;;
1935;SDS011;969;49.892;10.896;2023-12-22T12:51:44;14.77;;;7.50;;
1935;SDS011;969;49.892;10.896;2023-12-22T12:54:11;21.07;;;8.00;;
1935;SDS011;969;49.892;10.896;2023-12-22T12:56:39;15.83;;;7.60;;
1935;SDS011;969;49.892;10.896;2023-12-22T12:59:09;18.57;;;9.03;;
1935;SDS011;969;49.892;10.896;2023-12-22T13:01:42;19.63;;;8.23;;
1935;SDS011;969;49.892;10.896;2023-12-22T13:04:09;21.40;;;9.43;;
1935;SDS011;969;49.892;10.896;2023-12-22T13:06:35;17.40;;;9.23;;
1935;SDS011;969;49.892;10.896;2023-12-22T13:09:14;18.70;;;9.03;;
1935;SDS011;969;49.892;10.896;2023-12-22T13:11:40;19.30;;;10.10;;
1935;SDS011;969;49.892;10.896;2023-12-22T13:14:09;15.90;;;8.70;;
1935;SDS011;969;49.892;10.896;2023-12-22T13:16:35;20.90;;;9.03;;
1935;SDS011;969;49.892;10.896;2023-12-22T13:19:03;23.40;;;10.00;;
1935;SDS011;969;49.892;10.896;2023-12-22T13:21:29;28.10;;;12.77;;
1935;SDS011;969;49.892;10.896;2023-12-22T13:27:00;21.83;;;11.17;;
1935;SDS011;969;49.892;10.896;2023-12-22T13:29:28;23.30;;;11.03;;
1935;SDS011;969;49.892;10.896;2023-12-22T13:31:54;24.63;;;12.27;;
1935;SDS011;969;49.892;10.896;2023-12-22T13:34:22;22.77;;;11.37;;
1935;SDS011;969;49.892;10.896;2023-12-22T13:36:47;22.43;;;11.60;;
1935;SDS011;969;49.892;10.896;2023-12-22T13:39:13;26.23;;;11.40;;
1935;SDS011;969;49.892;10.896;2023-12-22T13:41:40;20.20;;;10.10;;
1935;SDS011;969;49.892;10.896;2023-12-22T13:44:10;23.50;;;11.50;;
1935;SDS011;969;49.892;10.896;2023-12-22T13:46:36;25.80;;;12.60;;
1935;SDS011;969;49.892;10.896;2023-12-22T13:49:05;32.53;;;15.07;;
1935;SDS011;969;49.892;10.896;2023-12-22T13:51:41;25.93;;;12.60;;
1935;SDS011;969;49.892;10.896;2023-12-22T13:54:08;27.13;;;12.23;;
1935;SDS011;969;49.892;10.896;2023-12-22T13:56:34;27.50;;;11.70;;
1935;SDS011;969;49.892;10.896;2023-12-22T13:59:01;20.83;;;10.37;;
1935;SDS011;969;49.892;10.896;2023-12-22T14:01:28;29.57;;;11.70;;
1935;SDS011;969;49.892;10.896;2023-12-22T14:03:53;24.37;;;11.47;;
1935;SDS011;969;49.892;10.896;2023-12-22T14:06:20;21.23;;;12.07;;
1935;SDS011;969;49.892;10.896;2023-12-22T14:08:45;21.40;;;10.43;;
1935;SDS011;969;49.892;10.896;2023-12-22T14:11:11;27.00;;;14.00;;
1935;SDS011;969;49.892;10.896;2023-12-22T14:13:38;24.13;;;11.60;;
1935;SDS011;969;49.892;10.896;2023-12-22T14:16:06;26.97;;;12.50;;
1935;SDS011;969;49.892;10.896;2023-12-22T14:18:31;24.90;;;12.97;;
1935;SDS011;969;49.892;10.896;2023-12-22T14:20:57;21.07;;;11.07;;
1935;SDS011;969;49.892;10.896;2023-12-22T14:23:23;25.80;;;12.80;;
1935;SDS011;969;49.892;10.896;2023-12-22T14:25:49;26.70;;;12.70;;
1935;SDS011;969;49.892;10.896;2023-12-22T14:28:15;25.90;;;11.97;;
1935;SDS011;969;49.892;10.896;2023-12-22T14:30:40;23.60;;;12.23;;
1935;SDS011;969;49.892;10.896;2023-12-22T14:33:06;28.53;;;12.33;;
1935;SDS011;969;49.892;10.896;2023-12-22T14:35:32;19.00;;;11.73;;
1935;SDS011;969;49.892;10.896;2023-12-22T14:37:57;18.83;;;10.37;;
1935;SDS011;969;49.892;10.896;2023-12-22T14:40:23;23.37;;;11.50;;
1935;SDS011;969;49.892;10.896;2023-12-22T14:42:50;23.10;;;11.47;;
1935;SDS011;969;49.892;10.896;2023-12-22T14:45:15;23.03;;;13.43;;
1935;SDS011;969;49.892;10.896;2023-12-22T14:47:41;21.90;;;11.70;;
1935;SDS011;969;49.892;10.896;2023-12-22T14:50:07;26.07;;;12.03;;
1935;SDS011;969;49.892;10.896;2023-12-22T14:52:33;27.80;;;12.27;;
1935;SDS011;969;49.892;10.896;2023-12-22T14:54:59;27.10;;;12.83;;
1935;SDS011;969;49.892;10.896;2023-12-22T14:57:25;24.60;;;12.27;;
1935;SDS011;969;49.892;10.896;2023-12-22T14:59:51;21.87;;;12.30;;
1935;SDS011;969;49.892;10.896;2023-12-22T15:02:17;22.97;;;12.33;;
1935;SDS011;969;49.892;10.896;2023-12-22T15:04:42;23.00;;;11.47;;
1935;SDS011;969;49.892;10.896;2023-12-22T15:07:08;21.07;;;11.00;;
1935;SDS011;969;49.892;10.896;2023-12-22T15:09:38;21.93;;;10.97;;
1935;SDS011;969;49.892;10.896;2023-12-22T15:12:04;16.73;;;9.87;;
1935;SDS011;969;49.892;10.896;2023-12-22T15:14:30;17.83;;;9.60;;
1935;SDS011;969;49.892;10.896;2023-12-22T15:16:55;15.40;;;10.27;;
1935;SDS011;969;49.892;10.896;2023-12-22T15:19:21;23.20;;;10.83;;
1935;SDS011;969;49.892;10.896;2023-12-22T15:21:47;19.20;;;11.20;;
1935;SDS011;969;49.892;10.896;2023-12-22T15:24:12;20.13;;;11.37;;
1935;SDS011;969;49.892;10.896;2023-12-22T15:26:38;19.70;;;11.07;;